Time;durP1;ratioP1;P1;durP2;ratioP2;P2;SDS_P1;SDS_P2;PMS_P1;PMS_P2;Temp;Humidity;BMP_temperature;BMP_pressure;BME280_temperature;BME280_humidity;BME280_pressure;Samples;Min_cycle;Max_cycle;Signal;HPM_P1;HPM_P2
2022/11/17 00:01:21;;;;;;;3.50;3.20;;;;;;;2.85;80.74;99860.14;3313154;83;20986;-74
2022/11/17 00:06:12;;;;;;;4.08;3.15;;;;;;;2.82;80.64;99856.59;3321884;83;21397;-74
2022/11/17 00:11:04;;;;;;;3.30;3.00;;;;;;;2.81;80.59;99858.72;3259727;83;21576;-74
2022/11/17 00:15:55;;;;;;;4.22;2.80;;;;;;;2.81;80.39;99868.98;3283993;84;20968;-74
2022/11/17 00:25:57;;;;;;;2.90;2.70;;;;;;;2.70;79.65;99862.58;3357859;84;21117;-74
2022/11/17 00:35:58;;;;;;;2.60;2.40;;;;;;;2.63;79.59;99867.52;3325787;83;21145;-74
2022/11/17 00:40:49;;;;;;;2.65;2.45;;;;;;;2.63;79.44;99867.52;3364850;83;21049;-74
2022/11/17 00:45:40;;;;;;;3.00;2.80;;;;;;;2.58;79.09;99867.77;3355043;85;20962;-74
2022/11/17 00:50:31;;;;;;;4.55;2.30;;;;;;;2.55;79.03;99876.63;3343312;83;21028;-74
2022/11/17 00:55:22;;;;;;;3.35;3.05;;;;;;;2.52;78.84;99882.92;3329263;83;21438;-73
2022/11/17 01:00:15;;;;;;;2.95;2.45;;;;;;;2.45;78.35;99885.70;3344358;84;21100;-74
2022/11/17 01:05:07;;;;;;;2.87;2.58;;;;;;;2.38;78.43;99882.83;3330461;85;21014;-73
2022/11/17 01:09:58;;;;;;;3.42;2.60;;;;;;;2.34;78.11;99887.39;3334893;83;20968;-74
2022/11/17 01:14:49;;;;;;;3.47;2.65;;;;;;;2.25;78.11;99892.67;3368421;82;21044;-74
2022/11/17 01:19:41;;;;;;;3.45;2.50;;;;;;;2.21;78.31;99885.66;3374215;83;21485;-73
2022/11/17 01:24:32;;;;;;;3.27;2.20;;;;;;;2.19;78.28;99884.73;3336426;84;21000;-73
2022/11/17 01:29:23;;;;;;;5.17;3.15;;;;;;;2.18;78.45;99881.72;3367642;83;21442;-74
2022/11/17 01:34:14;;;;;;;3.33;3.00;;;;;;;2.17;78.22;99879.95;3419014;83;21103;-74
2022/11/17 01:39:05;;;;;;;3.12;2.83;;;;;;;2.15;77.82;99885.44;3382614;83;21055;-74
2022/11/17 01:44:00;;;;;;;3.00;2.70;;;;;;;2.10;78.19;99877.56;3349347;83;20949;-74
2022/11/17 01:48:56;;;;;;;4.58;2.87;;;;;;;2.10;78.20;99881.83;3360323;83;21565;-74
2022/11/17 01:53:50;;;;;;;3.12;2.92;;;;;;;2.08;77.81;99877.05;3414809;83;20984;-73
2022/11/17 01:58:46;;;;;;;3.22;2.92;;;;;;;2.06;77.94;99873.56;3331774;84;20967;-74
2022/11/17 02:03:39;;;;;;;3.50;2.90;;;;;;;2.02;77.93;99857.58;3393405;84;21549;-74
2022/11/17 02:08:33;;;;;;;3.98;3.35;;;;;;;2.01;77.87;99862.25;3405996;82;21439;-74
2022/11/17 02:13:26;;;;;;;3.87;3.37;;;;;;;1.99;77.58;99862.61;3365890;83;21324;-75
2022/11/17 02:18:18;;;;;;;3.37;2.83;;;;;;;1.95;77.16;99860.34;3309222;83;20988;-74
2022/11/17 02:23:39;;;;;;;3.20;2.90;;;;;;;1.95;77.72;99866.75;3315047;84;21075;-75
2022/11/17 02:28:51;;;;;;;3.02;2.72;;;;;;;1.94;77.59;99853.87;3322262;85;21519;-74
2022/11/17 02:34:18;;;;;;;3.65;3.08;;;;;;;1.94;77.60;99851.30;3349276;83;20989;-74
2022/11/17 02:39:20;;;;;;;2.83;2.52;;;;;;;1.92;77.62;99849.09;3333353;83;21715;-75
2022/11/17 02:44:38;;;;;;;3.55;3.02;;;;;;;1.90;77.58;99851.18;3341589;83;20997;-74
2022/11/17 02:49:35;;;;;;;3.15;2.70;;;;;;;1.90;77.34;99856.30;3341326;83;20980;-74
2022/11/17 02:54:30;;;;;;;3.67;3.08;;;;;;;1.89;77.31;99849.42;3340489;83;21396;-75
2022/11/17 02:59:26;;;;;;;3.40;2.87;;;;;;;1.87;77.27;99854.03;3334885;84;21025;-74
2022/11/17 03:04:32;;;;;;;4.28;2.72;;;;;;;1.87;77.31;99847.63;3363667;83;21065;-74
2022/11/17 03:09:41;;;;;;;2.83;2.62;;;;;;;1.87;77.52;99852.34;3334989;84;21502;-74
2022/11/17 03:14:43;;;;;;;3.37;3.00;;;;;;;1.88;77.40;99859.22;3367274;84;20982;-74
2022/11/17 03:19:48;;;;;;;2.83;2.60;;;;;;;1.85;77.14;99855.25;3350223;83;20935;-74
2022/11/17 03:24:57;;;;;;;2.90;2.55;;;;;;;1.86;77.53;99859.58;3372336;83;21626;-75
2022/11/17 03:29:53;;;;;;;2.58;2.37;;;;;;;1.83;77.45;99865.86;3330647;84;21596;-74
2022/11/17 03:34:48;;;;;;;3.33;2.72;;;;;;;1.85;77.51;99869.35;3370196;84;20963;-74
2022/11/17 03:39:48;;;;;;;3.72;2.80;;;;;;;1.86;77.71;99867.27;3365224;84;20948;-74
2022/11/17 03:44:44;;;;;;;3.00;2.70;;;;;;;1.83;77.37;99869.70;3344488;83;21843;-74
2022/11/17 03:50:10;;;;;;;3.45;2.92;;;;;;;1.80;77.57;99873.42;3313188;84;21750;-74
2022/11/17 03:55:03;;;;;;;3.20;2.72;;;;;;;1.79;77.47;99872.97;3369608;84;21485;-75
2022/11/17 04:00:13;;;;;;;3.52;2.65;;;;;;;1.75;77.37;99868.52;3318853;84;21012;-74
2022/11/17 04:05:05;;;;;;;3.98;2.70;;;;;;;1.74;77.59;99875.77;3332215;84;20949;-74
2022/11/17 04:09:56;;;;;;;2.77;2.58;;;;;;;1.74;77.43;99862.95;3355474;83;20964;-74
2022/11/17 04:19:57;;;;;;;2.83;2.52;;;;;;;1.66;77.44;99865.61;3385652;83;20953;-74
2022/11/17 04:24:48;;;;;;;3.30;2.98;;;;;;;1.66;77.50;99860.48;3398999;83;21605;-74
2022/11/17 04:29:39;;;;;;;3.02;2.15;;;;;;;1.64;77.39;99862.12;3398630;82;20964;-74
2022/11/17 04:34:30;;;;;;;4.83;2.80;;;;;;;1.63;77.58;99873.20;3387694;82;20987;-74
2022/11/17 04:39:22;;;;;;;3.20;2.20;;;;;;;1.63;77.46;99871.92;3353916;83;20948;-74
2022/11/17 04:44:16;;;;;;;3.27;2.35;;;;;;;1.60;77.14;99875.22;3365722;83;21895;-75
2022/11/17 04:49:07;;;;;;;2.95;2.40;;;;;;;1.59;77.48;99872.59;3396054;83;21523;-74
2022/11/17 04:54:00;;;;;;;3.30;2.98;;;;;;;1.58;77.27;99877.27;3390236;83;20928;-74
2022/11/17 04:58:52;;;;;;;2.52;2.30;;;;;;;1.56;77.30;99873.73;3359041;83;20941;-75
2022/11/17 05:03:53;;;;;;;2.80;2.25;;;;;;;1.56;77.39;99883.98;3367092;82;21090;-74
2022/11/17 05:08:45;;;;;;;2.67;2.30;;;;;;;1.54;77.12;99878.83;3369847;83;21592;-74
2022/11/17 05:13:36;;;;;;;4.87;2.60;;;;;;;1.52;77.01;99878.77;3329493;83;20986;-75
2022/11/17 05:18:30;;;;;;;2.62;2.05;;;;;;;1.54;77.14;99876.27;3390084;83;20942;-75
2022/11/17 05:28:31;;;;;;;2.42;2.20;;;;;;;1.53;76.94;99877.07;3342829;83;22251;-74
2022/11/17 05:33:22;;;;;;;4.00;2.12;;;;;;;1.55;76.92;99877.13;3355675;84;21425;-74
2022/11/17 05:38:13;;;;;;;2.40;2.20;;;;;;;1.55;76.91;99869.03;3353758;83;21450;-74
2022/11/17 05:43:04;;;;;;;3.20;2.10;;;;;;;1.58;76.80;99879.83;3361028;83;20947;-75
2022/11/17 05:47:56;;;;;;;4.47;2.62;;;;;;;1.56;76.70;99879.77;3346722;83;20985;-75
2022/11/17 05:52:47;;;;;;;4.15;2.40;;;;;;;1.58;76.60;99879.83;3314301;83;20955;-74
2022/11/17 05:57:39;;;;;;;2.65;2.02;;;;;;;1.55;76.24;99884.81;3336486;84;22660;-76
2022/11/17 06:02:46;;;;;;;3.22;2.62;;;;;;;1.57;76.45;99887.03;3374615;83;21067;-74
2022/11/17 06:07:38;;;;;;;3.52;2.22;;;;;;;1.56;76.33;99889.11;3362489;83;22037;-74
2022/11/17 06:12:29;;;;;;;4.10;2.17;;;;;;;1.55;76.27;99895.06;3395904;82;21362;-75
2022/11/17 06:17:31;;;;;;;4.90;2.30;;;;;;;1.55;76.13;99897.62;3356200;82;21088;-74
2022/11/17 06:22:25;;;;;;;2.40;2.20;;;;;;;1.56;76.04;99907.05;3377277;82;21487;-74
2022/11/17 06:27:17;;;;;;;1.85;1.72;;;;;;;1.55;75.59;99904.90;3328494;84;21580;-74
2022/11/17 06:32:08;;;;;;;2.12;1.82;;;;;;;1.55;75.25;99902.75;3392115;83;21003;-75
2022/11/17 06:37:00;;;;;;;2.17;2.00;;;;;;;1.52;74.56;99900.92;3359902;84;20980;-74
2022/11/17 06:41:51;;;;;;;3.72;1.62;;;;;;;1.52;74.74;99913.35;3363396;83;20984;-73
2022/11/17 06:46:42;;;;;;;2.72;2.40;;;;;;;1.47;74.33;99917.41;3377873;83;21426;-74
2022/11/17 06:51:34;;;;;;;3.37;3.08;;;;;;;1.43;74.33;99922.34;3394057;83;21529;-74
2022/11/17 06:56:27;;;;;;;3.52;2.58;;;;;;;1.43;74.45;99924.52;3369342;82;21527;-75
2022/11/17 07:01:19;;;;;;;2.65;2.30;;;;;;;1.42;74.32;99917.63;3398573;82;20960;-75
2022/11/17 07:06:11;;;;;;;4.10;2.87;;;;;;;1.40;74.12;99917.97;3416168;82;21457;-76
2022/11/17 07:11:07;;;;;;;3.27;2.98;;;;;;;1.39;74.11;99916.63;3391385;83;20980;-75
2022/11/17 07:16:12;;;;;;;4.45;3.52;;;;;;;1.38;74.24;99917.05;3389530;83;20983;-74
2022/11/17 07:21:05;;;;;;;4.40;4.00;;;;;;;1.38;74.31;99918.33;3388896;82;22056;-75
2022/11/17 07:25:57;;;;;;;3.35;2.87;;;;;;;1.38;74.36;99914.48;3366472;83;21016;-74
2022/11/17 07:30:48;;;;;;;4.92;3.50;;;;;;;1.35;74.01;99904.10;3367562;82;21473;-75
2022/11/17 07:35:50;;;;;;;5.33;3.62;;;;;;;1.30;74.00;99917.12;3394149;82;21405;-75
2022/11/17 07:40:41;;;;;;;4.78;2.70;;;;;;;1.33;74.29;99924.94;3359837;82;20928;-75
2022/11/17 07:45:33;;;;;;;3.33;3.02;;;;;;;1.39;74.42;99930.30;3359512;84;21020;-75
2022/11/17 07:50:25;;;;;;;4.22;3.83;;;;;;;1.38;74.08;99932.80;3342848;83;21656;-75
2022/11/17 07:55:18;;;;;;;5.62;4.35;;;;;;;1.36;73.78;99941.72;3317629;83;20991;-75
2022/11/17 08:00:18;;;;;;;3.90;3.47;;;;;;;1.26;73.47;99935.73;3365049;83;21168;-75
2022/11/17 08:05:11;;;;;;;4.50;3.47;;;;;;;1.23;73.74;99933.05;3409584;82;21007;-76
2022/11/17 08:10:19;;;;;;;3.35;3.05;;;;;;;1.25;73.87;99934.88;3338403;82;20988;-76
2022/11/17 08:15:25;;;;;;;3.08;2.77;;;;;;;1.29;74.00;99934.59;3319949;84;20991;-76
2022/11/17 08:20:21;;;;;;;4.35;3.80;;;;;;;1.30;73.73;99927.36;3273188;84;20951;-76
2022/11/17 08:25:13;;;;;;;4.10;3.70;;;;;;;1.33;73.87;99933.91;3340011;84;20995;-76
2022/11/17 08:30:55;;;;;;;6.58;3.37;;;;;;;1.37;73.96;99934.48;3329752;85;20995;-76
2022/11/17 08:36:09;;;;;;;3.67;3.37;;;;;;;1.40;73.96;99934.63;3212910;85;21066;-76
2022/11/17 08:41:20;;;;;;;;;;;;;;;;;;;;;
2022/11/17 08:46:26;;;;;;;;;;;;;;;;;;;;;
2022/11/17 08:51:33;;;;;;;5.28;3.83;;;;;;;1.48;73.89;99929.80;3179052;87;22052;-77
2022/11/17 08:56:42;;;;;;;5.03;3.40;;;;;;;1.49;73.81;99930.29;3150252;87;21008;-78
2022/11/17 09:02:25;;;;;;;4.55;4.08;;;;;;;1.50;73.69;99932.92;3150858;87;22004;-76
2022/11/17 09:07:16;;;;;;;;;;;;;;;;;;;;;
2022/11/17 09:12:38;;;;;;;;;;;;;;;;;;;;;
2022/11/17 09:17:46;;;;;;;5.72;4.87;;;;;;;1.60;73.68;99926.88;3347201;82;20972;-75
2022/11/17 09:23:03;;;;;;;5.23;4.43;;;;;;;1.50;73.11;99927.80;3404737;82;20944;-76
2022/11/17 09:28:35;;;;;;;6.08;4.28;;;;;;;1.39;73.29;99928.16;3390024;82;20988;-76
2022/11/17 09:33:50;;;;;;;5.55;4.83;;;;;;;1.37;73.56;99928.50;3402059;82;21176;-76
2022/11/17 09:38:47;;;;;;;8.70;5.55;;;;;;;1.34;73.19;99924.11;3390989;82;20957;-76
2022/11/17 09:44:26;;;;;;;6.17;4.45;;;;;;;1.30;72.92;99920.96;3351283;82;20897;-75
2022/11/17 09:49:35;;;;;;;6.35;5.22;;;;;;;1.28;72.94;99916.19;3401541;82;21031;-75
2022/11/17 09:55:49;;;;;;;;;;;;;;;;;;;;;
2022/11/17 10:00:57;;;;;;;7.00;6.12;;;;;;;1.21;72.80;99909.92;3341795;83;21954;-76
2022/11/17 10:06:01;;;;;;;;;;;;;;;;;;;;;
2022/11/17 10:16:25;;;;;;;;;;;;;;;;;;;;;
2022/11/17 10:21:52;;;;;;;;;;;;;;;;;;;;;
2022/11/17 10:38:51;;;;;;;;;;;;;;;;;;;;;
2022/11/17 10:44:38;;;;;;;7.50;5.75;;;;;;;1.46;72.69;99888.75;3061852;91;20956;-75
2022/11/17 10:50:02;;;;;;;7.60;5.55;;;;;;;1.49;72.26;99883.76;2910081;96;21050;-75
2022/11/17 10:55:44;;;;;;;;;;;;;;;;;;;;;
2022/11/17 11:12:09;;;;;;;6.90;5.53;;;;;;;1.80;71.76;99873.42;2932298;96;21034;-75
2022/11/17 11:22:50;;;;;;;6.22;5.40;;;;;;;1.86;71.45;99867.27;2847784;99;21084;-75
2022/11/17 11:27:53;;;;;;;7.33;5.10;;;;;;;1.89;71.18;99858.80;2835879;99;21067;-75
2022/11/17 11:32:56;;;;;;;11.90;6.05;;;;;;;1.90;71.06;99853.74;2828840;99;21145;-75
2022/11/17 11:38:13;;;;;;;6.35;5.33;;;;;;;1.96;71.19;99849.67;2832164;99;21096;-75
2022/11/17 11:43:28;;;;;;;5.35;4.85;;;;;;;1.95;70.84;99847.52;2823194;98;21140;-75
2022/11/17 11:48:26;;;;;;;5.92;4.58;;;;;;;1.96;70.72;99859.92;2832537;99;21067;-75
2022/11/17 11:53:31;;;;;;;5.20;4.70;;;;;;;1.92;70.33;99851.66;2894299;97;21225;-75
2022/11/17 11:58:23;;;;;;;5.80;5.22;;;;;;;1.86;70.21;99850.61;2978134;94;22248;-75
2022/11/17 12:03:28;;;;;;;6.28;5.60;;;;;;;1.83;70.34;99863.71;3023648;93;21158;-75
2022/11/17 12:08:34;;;;;;;6.17;4.97;;;;;;;1.81;70.18;99863.66;3100243;88;20974;-75
2022/11/17 12:13:26;;;;;;;7.33;5.55;;;;;;;1.75;69.84;99859.55;3142068;88;20975;-75
2022/11/17 12:18:23;;;;;;;6.55;5.67;;;;;;;1.64;69.76;99866.83;3136060;88;21473;-75
2022/11/17 12:23:39;;;;;;;5.83;5.10;;;;;;;1.74;69.80;99859.11;3224344;85;21241;-75
2022/11/17 12:28:40;;;;;;;6.05;4.78;;;;;;;1.96;69.44;99852.23;3297535;84;21027;-75
2022/11/17 12:33:56;;;;;;;5.70;4.03;;;;;;;2.13;69.15;99846.05;3332586;84;20936;-75
2022/11/17 12:38:47;;;;;;;4.53;3.75;;;;;;;2.33;69.08;99840.77;3348764;84;21080;-75
2022/11/17 12:43:40;;;;;;;5.05;4.47;;;;;;;2.40;68.08;99832.48;3304298;84;21060;-75
2022/11/17 12:48:40;;;;;;;4.60;4.12;;;;;;;2.32;68.17;99831.31;3350550;84;21035;-75
2022/11/17 12:53:49;;;;;;;6.80;3.95;;;;;;;2.20;68.00;99828.78;3312289;84;21416;-75
2022/11/17 12:58:57;;;;;;;4.37;3.98;;;;;;;2.10;68.45;99827.97;3336097;84;20947;-75
2022/11/17 13:04:03;;;;;;;;;;;;;;;1.93;68.31;99818.78;3337946;83;21110;-75
2022/11/17 13:09:18;;;;;;;5.10;3.30;;;;;;;1.85;68.01;99818.50;3331930;84;20153;-75
2022/11/17 13:14:48;;;;;;;;;;;;;;;;;;;;;
2022/11/17 13:25:18;;;;;;;5.30;3.98;;;;;;;2.05;68.07;99814.11;3142783;89;21229;-76
2022/11/17 13:37:15;;;;;;;;;;;;;;;;;;;;;
2022/11/17 13:42:30;;;;;;;4.45;4.05;;;;;;;2.12;67.88;99799.41;2994092;93;21550;-76
2022/11/17 13:48:01;;;;;;;4.45;4.05;;;;;;;1.96;67.90;99806.95;3014690;93;21130;-76
2022/11/17 13:53:33;;;;;;;;;;;;;;;1.76;67.80;99799.80;2998009;93;21061;-76
2022/11/17 13:59:28;;;;;;;4.70;3.50;;;;;;;1.54;68.35;99809.66;2993048;94;20193;-76
2022/11/17 14:15:03;;;;;;;4.28;3.33;;;;;;;1.26;69.07;99809.84;2721215;102;21742;-76
2022/11/17 14:20:07;;;;;;;;;;;;;;;;;;;;;
2022/11/17 14:25:04;;;;;;;;;;;;;;;;;;;;;
2022/11/17 14:30:13;;;;;;;5.70;3.75;;;;;;;0.89;69.31;99804.92;2830730;99;21597;-76
2022/11/17 14:41:39;;;;;;;5.65;4.22;;;;;;;0.67;69.87;99805.31;2742866;103;21103;-75
2022/11/17 14:47:16;;;;;;;;;;;;;;;;;;;;;
2022/11/17 14:58:08;;;;;;;4.75;4.25;;;;;;;0.13;70.39;99805.56;2771765;100;21103;-75
2022/11/17 15:03:36;;;;;;;6.55;4.80;;;;;;;-0.09;70.35;99816.91;2741479;102;21069;-75
2022/11/17 15:09:36;;;;;;;;;;;;;;;;;;;;;
2022/11/17 15:14:42;;;;;;;6.03;4.50;;;;;;;-0.43;70.72;99814.08;2710990;103;21157;-74
2022/11/17 15:19:38;;;;;;;8.78;5.20;;;;;;;-0.62;70.70;99814.50;2727570;103;21554;-73
2022/11/17 15:24:29;;;;;;;6.40;4.72;;;;;;;-0.74;71.01;99811.78;2728031;102;21265;-75
2022/11/17 15:29:20;;;;;;;8.55;5.03;;;;;;;-0.85;71.55;99814.69;2804224;99;21676;-74
2022/11/17 15:34:12;;;;;;;8.03;4.95;;;;;;;-0.94;71.71;99810.42;2857368;96;21012;-73
2022/11/17 15:39:04;;;;;;;5.80;4.80;;;;;;;-1.06;71.70;99809.82;2905369;96;21073;-74
2022/11/17 15:43:55;;;;;;;6.85;4.67;;;;;;;-1.11;72.25;99806.16;3133697;85;20982;-74
2022/11/17 15:48:51;;;;;;;6.95;4.65;;;;;;;-1.19;72.18;99800.28;3296095;85;20976;-74
2022/11/17 15:53:44;;;;;;;21.52;10.10;;;;;;;-1.25;72.51;99801.66;3393490;83;20999;-74
2022/11/17 15:58:36;;;;;;;19.57;12.23;;;;;;;-1.29;72.82;99796.80;3334818;82;20936;-74
2022/11/17 16:03:28;;;;;;;14.75;8.63;;;;;;;-1.28;72.86;99800.25;3385251;83;21676;-74
2022/11/17 16:08:19;;;;;;;13.03;6.87;;;;;;;-1.33;73.13;99791.08;3394636;83;20964;-74
2022/11/17 16:13:10;;;;;;;12.60;7.90;;;;;;;-1.40;73.12;99796.67;3354702;83;20999;-75
2022/11/17 16:18:01;;;;;;;10.30;7.62;;;;;;;-1.41;73.44;99806.41;3388322;82;23096;-74
2022/11/17 16:22:53;;;;;;;12.95;9.18;;;;;;;-1.37;73.72;99809.59;3316664;82;22119;-74
2022/11/17 16:27:44;;;;;;;15.18;9.45;;;;;;;-1.32;73.79;99815.80;3371445;82;20982;-74
2022/11/17 16:32:35;;;;;;;16.70;11.63;;;;;;;-1.25;73.80;99819.50;3374780;83;20966;-74
2022/11/17 16:37:26;;;;;;;15.88;11.55;;;;;;;-1.17;73.99;99806.74;3354744;84;21039;-74
2022/11/17 16:42:17;;;;;;;22.05;14.13;;;;;;;-1.13;74.13;99803.53;3385610;84;20983;-74
2022/11/17 16:47:08;;;;;;;16.45;10.08;;;;;;;-1.06;74.22;99799.20;3397775;84;20952;-75
2022/11/17 16:52:00;;;;;;;17.27;11.03;;;;;;;-1.02;74.48;99800.23;3338962;84;36735;-74
2022/11/17 16:56:52;;;;;;;12.73;7.40;;;;;;;-0.98;74.41;99804.70;3338016;84;21075;-74
2022/11/17 17:01:43;;;;;;;8.50;6.67;;;;;;;-1.04;74.18;99791.25;3348591;83;20937;-75
2022/11/17 17:06:41;;;;;;;17.35;7.80;;;;;;;-1.04;74.26;99785.25;3357970;83;21729;-74
2022/11/17 17:11:34;;;;;;;10.78;7.78;;;;;;;-1.10;74.26;99781.14;3383669;82;21463;-75
2022/11/17 17:16:26;;;;;;;10.90;7.95;;;;;;;-1.15;74.37;99788.14;3368489;84;22179;-74
2022/11/17 17:21:18;;;;;;;15.55;9.43;;;;;;;-1.15;74.32;99786.00;3364744;82;21052;-74
2022/11/17 17:26:15;;;;;;;17.42;11.83;;;;;;;-1.13;74.68;99779.30;3388035;82;21016;-75
2022/11/17 17:31:07;;;;;;;15.32;11.12;;;;;;;-1.10;74.84;99772.21;3324829;82;21647;-75
2022/11/17 17:36:08;;;;;;;14.07;9.90;;;;;;;-1.05;74.95;99769.48;3365547;83;21046;-75
2022/11/17 17:41:16;;;;;;;19.23;13.15;;;;;;;-1.02;74.86;99761.95;3340961;82;20968;-75
2022/11/17 17:51:17;;;;;;;16.73;11.18;;;;;;;-0.96;75.03;99760.98;3206889;86;20169;-75
2022/11/17 17:56:17;;;;;;;38.23;23.18;;;;;;;-0.99;74.97;99745.52;3163315;88;22678;-74
2022/11/17 18:01:36;;;;;;;36.00;25.00;;;;;;;-0.98;75.18;99756.22;3146017;87;21550;-75
2022/11/17 18:06:39;;;;;;;20.68;12.80;;;;;;;-0.95;75.36;99743.58;3176374;88;24200;-77
2022/11/17 18:11:30;;;;;;;37.73;20.30;;;;;;;-0.91;75.42;99745.50;3190580;87;21109;-74
2022/11/17 18:16:29;;;;;;;40.83;22.90;;;;;;;-0.92;75.33;99742.87;3127453;88;21062;-74
2022/11/17 18:21:20;;;;;;;28.40;17.05;;;;;;;-0.91;75.41;99740.39;3150741;88;21976;-76
2022/11/17 18:26:22;;;;;;;61.50;31.48;;;;;;;-0.92;75.56;99744.15;3149216;84;21524;-75
2022/11/17 18:31:16;;;;;;;43.40;24.75;;;;;;;-0.91;75.25;99742.95;3335037;82;21496;-77
2022/11/17 18:36:08;;;;;;;34.45;20.90;;;;;;;-0.93;75.30;99747.11;3351113;83;21344;-74
2022/11/17 18:41:14;;;;;;;41.65;24.10;;;;;;;-0.89;75.38;99723.47;3362923;82;20987;-76
2022/11/17 18:46:09;;;;;;;66.90;32.30;;;;;;;-0.86;75.54;99730.00;3344546;82;21545;-74
2022/11/17 18:51:01;;;;;;;58.58;28.50;;;;;;;-0.84;75.82;99726.22;3275597;84;21505;-74
2022/11/17 18:56:02;;;;;;;57.35;28.80;;;;;;;-0.82;75.83;99722.09;3264899;84;21039;-74
2022/11/17 19:00:59;;;;;;;57.50;29.80;;;;;;;-0.81;75.86;99722.13;3344257;83;21018;-75
2022/11/17 19:05:50;;;;;;;;;;;;;;;-0.82;75.87;99712.75;3400180;83;21042;-75
2022/11/17 19:10:52;;;;;;;51.85;32.15;;;;;;;-0.84;75.75;99707.98;3357336;83;26738;-74
2022/11/17 19:15:43;;;;;;;78.15;48.42;;;;;;;-0.87;75.81;99707.83;3342464;83;21512;-74
2022/11/17 19:20:34;;;;;;;60.48;36.28;;;;;;;-0.88;75.68;99694.58;3321640;83;21042;-74
2022/11/17 19:25:25;;;;;;;55.85;33.92;;;;;;;-0.88;75.83;99692.03;3370955;82;21521;-75
2022/11/17 19:30:17;;;;;;;45.43;29.00;;;;;;;-0.89;75.38;99699.23;3395757;82;21031;-75
2022/11/17 19:35:08;;;;;;;39.70;25.08;;;;;;;-0.90;75.51;99698.74;3346445;82;22467;-75
2022/11/17 19:39:59;;;;;;;38.95;23.95;;;;;;;-0.91;75.28;99697.02;3280490;84;20963;-76
2022/11/17 19:44:50;;;;;;;38.40;24.32;;;;;;;-0.93;75.45;99696.07;3329292;84;21473;-75
2022/11/17 19:49:41;;;;;;;36.42;22.65;;;;;;;-0.94;75.35;99698.14;3291966;82;20962;-75
2022/11/17 19:54:33;;;;;;;39.30;22.73;;;;;;;-0.93;75.44;99697.34;3333852;82;21633;-76
2022/11/17 19:59:24;;;;;;;36.23;20.95;;;;;;;-0.93;75.55;99699.91;3350077;84;20975;-75
2022/11/17 20:04:16;;;;;;;34.73;22.37;;;;;;;-0.94;75.36;99704.52;3314317;82;22276;-75
2022/11/17 20:09:10;;;;;;;31.02;22.10;;;;;;;-0.93;75.34;99705.00;3319965;82;20959;-75
2022/11/17 20:14:01;;;;;;;38.15;22.73;;;;;;;-0.91;75.65;99700.84;3305607;83;20936;-75
2022/11/17 20:18:56;;;;;;;39.58;24.57;;;;;;;-0.88;75.70;99698.81;3355249;82;21047;-75
2022/11/17 20:23:53;;;;;;;32.28;21.30;;;;;;;-0.83;75.93;99688.02;3305872;82;21669;-75
2022/11/17 20:28:45;;;;;;;32.85;20.80;;;;;;;-0.85;75.52;99688.34;3363321;82;21047;-75
2022/11/17 20:33:41;;;;;;;38.08;20.80;;;;;;;-0.88;75.71;99684.38;3352387;82;21090;-74
2022/11/17 20:44:22;;;;;;;34.88;22.60;;;;;;;-0.90;75.80;99673.63;3170415;87;21070;-75
2022/11/17 20:49:13;;;;;;;33.48;22.00;;;;;;;-0.96;75.86;99667.85;3162012;88;21076;-75
2022/11/17 20:54:05;;;;;;;29.30;20.57;;;;;;;-1.02;75.92;99672.27;3116467;88;21007;-76
2022/11/17 20:58:56;;;;;;;38.35;21.95;;;;;;;-1.09;76.06;99667.69;3082068;89;21613;-75
